Friday, October 19, 2018, 11:50 AM EDT
Back to Local

KLWM, Lawrence Municipal Airport

Location: North Andover, MA, United States Lat: 42.717
Local Time: 11:50 AM EDT (15:50 GMT) Lon: -71.133
Time Zone: US/Eastern Elev: 147 ft

Show me the last for .
Show Coded

Time T Td Feel RH Dir Speed Gust Alt SLP Vis Weather Sky Remarks
2018-10-19 10:54 51 33 - 49 240° 9 - 30.17 30.17 10 CLR None
2018-10-19 09:54 45 30 39 55 240° 13 - 30.21 30.21 10 CLR None
2018-10-19 08:54 40 29 34 64 220° 8 - 30.23 30.23 10 CLR None
2018-10-19 07:54 36 26 30 66 210° 8 - 30.23 30.24 10 CLR 6-hr Min Temp (8am): 34.0°F
6-hr Max Temp (8am): 37.0°F
2018-10-19 06:54 35 26 29 69 200° 7 - 30.23 30.23 10 CLR None
2018-10-19 05:54 35 25 30 66 180° 6 - 30.24 30.24 10 FEW080 None
2018-10-19 04:54 35 25 31 66 170° 5 - 30.25 30.25 10 CLR None
2018-10-19 03:54 35 25 - 66 - Calm - 30.26 30.26 10 CLR None
2018-10-19 02:54 36 24 33 61 250° 3 - 30.26 30.26 10 CLR None
2018-10-19 01:54 36 23 31 58 200° 6 - 30.27 30.27 10 CLR 6-hr Min Temp (2am): 35.1°F
6-hr Max Temp (2am): 41.0°F
2018-10-19 00:54 37 24 31 59 230° 8 - 30.28 30.28 10 CLR 24-hr Min Temp (1am): 35.1°F
24-hr Max Temp (1am): 48.0°F
2018-10-18 23:54 36 23 30 58 230° 7 - 30.28 30.28 10 CLR None
2018-10-18 22:54 37 22 33 53 200° 5 - 30.28 30.28 10 CLR None
2018-10-18 21:54 37 23 32 56 210° 6 - 30.28 30.28 10 CLR None
2018-10-18 20:54 37 22 33 53 170° 5 - 30.27 30.27 10 CLR None
2018-10-18 19:54 40 21 36 46 250° 6 - 30.26 30.26 10 CLR 6-hr Min Temp (8pm): 37.9°F
6-hr Max Temp (8pm): 48.0°F
2018-10-18 18:54 42 18 40 37 260° 3 - 30.26 30.26 10 CLR None
2018-10-18 17:54 44 17 39 33 280° 9 - 30.23 30.24 10 CLR None
2018-10-18 16:54 47 16 40 28 310° 10 20 30.21 30.21 10 CLR None
2018-10-18 15:54 48 17 41 28 280° 13 20 30.20 30.20 10 CLR None
2018-10-18 14:54 47 16 38 28 300° 18 32 30.20 30.20 10 CLR Peak wind: 32 mph (28 kts) from 270° at 49 min
2018-10-18 13:54 47 17 41 29 320° 13 - 30.21 30.21 10 FEW070 6-hr Min Temp (2pm): 37.9°F
6-hr Max Temp (2pm): 46.9°F
2018-10-18 12:54 47 19 39 32 280° 13 23 30.21 30.21 10 SCT065 None
2018-10-18 11:54 45 17 36 32 330° 13 24 30.21 30.21 10 CLR Peak wind: 33 mph (29 kts) from 310° at 37 min

Support USWX by starting your Amazon purchase here.